sensor_id;sensor_type;location;lat;lon;timestamp;P1;durP1;ratioP1;P2;durP2;ratioP2
15982;SDS011;14442;50.196;8.096;2022-07-04T00:01:39;0.77;;;0.40;;
15982;SDS011;14442;50.196;8.096;2022-07-04T00:04:07;1.67;;;0.33;;
15982;SDS011;14442;50.196;8.096;2022-07-04T00:06:34;0.30;;;0.27;;
15982;SDS011;14442;50.196;8.096;2022-07-04T00:09:01;0.50;;;0.30;;
15982;SDS011;14442;50.196;8.096;2022-07-04T00:11:27;1.20;;;0.50;;
15982;SDS011;14442;50.196;8.096;2022-07-04T00:13:54;1.77;;;0.30;;
15982;SDS011;14442;50.196;8.096;2022-07-04T00:16:21;0.40;;;0.40;;
15982;SDS011;14442;50.196;8.096;2022-07-04T00:18:47;1.13;;;0.20;;
15982;SDS011;14442;50.196;8.096;2022-07-04T00:21:15;0.57;;;0.30;;
15982;SDS011;14442;50.196;8.096;2022-07-04T00:23:42;0.70;;;0.30;;
15982;SDS011;14442;50.196;8.096;2022-07-04T00:26:09;0.97;;;0.30;;
15982;SDS011;14442;50.196;8.096;2022-07-04T00:28:35;1.27;;;0.40;;
15982;SDS011;14442;50.196;8.096;2022-07-04T00:31:02;0.40;;;0.13;;
15982;SDS011;14442;50.196;8.096;2022-07-04T00:33:29;0.40;;;0.40;;
15982;SDS011;14442;50.196;8.096;2022-07-04T00:35:55;0.30;;;0.20;;
15982;SDS011;14442;50.196;8.096;2022-07-04T00:38:24;0.27;;;0.27;;
15982;SDS011;14442;50.196;8.096;2022-07-04T00:40:50;0.50;;;0.27;;
15982;SDS011;14442;50.196;8.096;2022-07-04T00:43:20;0.43;;;0.20;;
15982;SDS011;14442;50.196;8.096;2022-07-04T00:45:48;0.93;;;0.30;;
15982;SDS011;14442;50.196;8.096;2022-07-04T00:48:15;0.97;;;0.33;;
15982;SDS011;14442;50.196;8.096;2022-07-04T00:50:41;0.37;;;0.30;;
15982;SDS011;14442;50.196;8.096;2022-07-04T00:53:09;0.33;;;0.27;;
15982;SDS011;14442;50.196;8.096;2022-07-04T00:55:38;1.03;;;0.20;;
15982;SDS011;14442;50.196;8.096;2022-07-04T00:58:05;0.50;;;0.20;;
15982;SDS011;14442;50.196;8.096;2022-07-04T01:00:32;0.80;;;0.37;;
15982;SDS011;14442;50.196;8.096;2022-07-04T01:02:59;0.40;;;0.30;;
15982;SDS011;14442;50.196;8.096;2022-07-04T01:05:26;0.30;;;0.30;;
15982;SDS011;14442;50.196;8.096;2022-07-04T01:07:53;0.20;;;0.20;;
15982;SDS011;14442;50.196;8.096;2022-07-04T01:10:20;0.37;;;0.20;;
15982;SDS011;14442;50.196;8.096;2022-07-04T01:12:48;0.50;;;0.30;;
15982;SDS011;14442;50.196;8.096;2022-07-04T01:15:14;0.60;;;0.20;;
15982;SDS011;14442;50.196;8.096;2022-07-04T01:17:41;0.30;;;0.30;;
15982;SDS011;14442;50.196;8.096;2022-07-04T01:20:11;0.20;;;0.20;;
15982;SDS011;14442;50.196;8.096;2022-07-04T01:22:38;0.37;;;0.20;;
15982;SDS011;14442;50.196;8.096;2022-07-04T01:25:05;1.13;;;0.30;;
15982;SDS011;14442;50.196;8.096;2022-07-04T01:27:32;0.30;;;0.30;;
15982;SDS011;14442;50.196;8.096;2022-07-04T01:29:59;0.77;;;0.30;;
15982;SDS011;14442;50.196;8.096;2022-07-04T01:32:26;0.97;;;0.20;;
15982;SDS011;14442;50.196;8.096;2022-07-04T01:34:53;0.57;;;0.30;;
15982;SDS011;14442;50.196;8.096;2022-07-04T01:37:21;0.20;;;0.20;;
15982;SDS011;14442;50.196;8.096;2022-07-04T01:39:47;0.23;;;0.23;;
15982;SDS011;14442;50.196;8.096;2022-07-04T01:42:14;0.20;;;0.20;;
15982;SDS011;14442;50.196;8.096;2022-07-04T01:44:41;0.20;;;0.20;;
15982;SDS011;14442;50.196;8.096;2022-07-04T01:47:07;0.23;;;0.23;;
15982;SDS011;14442;50.196;8.096;2022-07-04T01:49:34;0.30;;;0.30;;
15982;SDS011;14442;50.196;8.096;2022-07-04T01:52:01;0.30;;;0.30;;
15982;SDS011;14442;50.196;8.096;2022-07-04T01:54:30;1.03;;;0.30;;
15982;SDS011;14442;50.196;8.096;2022-07-04T01:56:56;0.93;;;0.27;;
15982;SDS011;14442;50.196;8.096;2022-07-04T01:59:23;0.50;;;0.30;;
15982;SDS011;14442;50.196;8.096;2022-07-04T02:02:10;0.63;;;0.30;;
15982;SDS011;14442;50.196;8.096;2022-07-04T02:04:35;1.03;;;0.20;;
15982;SDS011;14442;50.196;8.096;2022-07-04T02:07:02;0.23;;;0.23;;
15982;SDS011;14442;50.196;8.096;2022-07-04T02:09:31;0.20;;;0.10;;
15982;SDS011;14442;50.196;8.096;2022-07-04T02:11:57;0.70;;;0.30;;
15982;SDS011;14442;50.196;8.096;2022-07-04T02:14:42;0.20;;;0.20;;
15982;SDS011;14442;50.196;8.096;2022-07-04T02:17:08;0.23;;;0.20;;
15982;SDS011;14442;50.196;8.096;2022-07-04T02:19:35;0.20;;;0.20;;
15982;SDS011;14442;50.196;8.096;2022-07-04T02:22:02;0.53;;;0.40;;
15982;SDS011;14442;50.196;8.096;2022-07-04T02:24:30;0.50;;;0.30;;
15982;SDS011;14442;50.196;8.096;2022-07-04T02:26:57;0.40;;;0.30;;
15982;SDS011;14442;50.196;8.096;2022-07-04T02:29:24;0.40;;;0.27;;
15982;SDS011;14442;50.196;8.096;2022-07-04T02:31:51;0.13;;;0.13;;
15982;SDS011;14442;50.196;8.096;2022-07-04T02:34:17;0.20;;;0.20;;
15982;SDS011;14442;50.196;8.096;2022-07-04T02:36:44;0.30;;;0.20;;
15982;SDS011;14442;50.196;8.096;2022-07-04T02:39:11;1.07;;;0.30;;
15982;SDS011;14442;50.196;8.096;2022-07-04T02:41:39;0.20;;;0.20;;
15982;SDS011;14442;50.196;8.096;2022-07-04T02:44:06;0.30;;;0.27;;
15982;SDS011;14442;50.196;8.096;2022-07-04T02:46:33;0.40;;;0.20;;
15982;SDS011;14442;50.196;8.096;2022-07-04T02:49:00;0.20;;;0.20;;
15982;SDS011;14442;50.196;8.096;2022-07-04T02:51:27;0.20;;;0.20;;
15982;SDS011;14442;50.196;8.096;2022-07-04T02:53:53;0.20;;;0.20;;
15982;SDS011;14442;50.196;8.096;2022-07-04T02:56:20;0.30;;;0.30;;
15982;SDS011;14442;50.196;8.096;2022-07-04T02:58:48;0.50;;;0.20;;
15982;SDS011;14442;50.196;8.096;2022-07-04T03:01:15;0.30;;;0.20;;
15982;SDS011;14442;50.196;8.096;2022-07-04T03:03:44;0.23;;;0.20;;
15982;SDS011;14442;50.196;8.096;2022-07-04T03:06:12;2.47;;;0.30;;
15982;SDS011;14442;50.196;8.096;2022-07-04T03:08:39;0.93;;;0.53;;
15982;SDS011;14442;50.196;8.096;2022-07-04T03:11:06;0.47;;;0.20;;
15982;SDS011;14442;50.196;8.096;2022-07-04T03:13:32;0.33;;;0.27;;
15982;SDS011;14442;50.196;8.096;2022-07-04T03:16:00;0.27;;;0.27;;
15982;SDS011;14442;50.196;8.096;2022-07-04T03:18:27;0.50;;;0.20;;
15982;SDS011;14442;50.196;8.096;2022-07-04T03:20:54;0.20;;;0.20;;
15982;SDS011;14442;50.196;8.096;2022-07-04T03:23:20;0.20;;;0.20;;
15982;SDS011;14442;50.196;8.096;2022-07-04T03:25:47;0.40;;;0.23;;
15982;SDS011;14442;50.196;8.096;2022-07-04T03:28:14;0.23;;;0.20;;
15982;SDS011;14442;50.196;8.096;2022-07-04T03:30:41;0.30;;;0.30;;
15982;SDS011;14442;50.196;8.096;2022-07-04T03:33:09;0.20;;;0.20;;
15982;SDS011;14442;50.196;8.096;2022-07-04T03:35:36;0.27;;;0.20;;
15982;SDS011;14442;50.196;8.096;2022-07-04T03:38:02;0.43;;;0.30;;
15982;SDS011;14442;50.196;8.096;2022-07-04T03:40:29;0.20;;;0.20;;
15982;SDS011;14442;50.196;8.096;2022-07-04T03:42:56;0.37;;;0.27;;
15982;SDS011;14442;50.196;8.096;2022-07-04T03:45:23;0.37;;;0.30;;
15982;SDS011;14442;50.196;8.096;2022-07-04T03:47:50;0.20;;;0.20;;
15982;SDS011;14442;50.196;8.096;2022-07-04T03:50:19;0.40;;;0.20;;
15982;SDS011;14442;50.196;8.096;2022-07-04T03:52:46;0.87;;;0.20;;
15982;SDS011;14442;50.196;8.096;2022-07-04T03:55:12;0.20;;;0.20;;
15982;SDS011;14442;50.196;8.096;2022-07-04T03:57:39;0.37;;;0.20;;
15982;SDS011;14442;50.196;8.096;2022-07-04T04:00:06;0.93;;;0.23;;
15982;SDS011;14442;50.196;8.096;2022-07-04T04:02:35;0.93;;;0.30;;
15982;SDS011;14442;50.196;8.096;2022-07-04T04:05:02;0.60;;;0.20;;
15982;SDS011;14442;50.196;8.096;2022-07-04T04:07:48;1.40;;;0.23;;
15982;SDS011;14442;50.196;8.096;2022-07-04T04:10:15;0.63;;;0.47;;
15982;SDS011;14442;50.196;8.096;2022-07-04T04:12:42;0.20;;;0.20;;
15982;SDS011;14442;50.196;8.096;2022-07-04T04:15:09;0.33;;;0.30;;
15982;SDS011;14442;50.196;8.096;2022-07-04T04:17:36;0.30;;;0.20;;
15982;SDS011;14442;50.196;8.096;2022-07-04T04:20:03;0.20;;;0.20;;
15982;SDS011;14442;50.196;8.096;2022-07-04T04:22:31;0.50;;;0.20;;
15982;SDS011;14442;50.196;8.096;2022-07-04T04:24:59;1.23;;;0.20;;
15982;SDS011;14442;50.196;8.096;2022-07-04T04:27:25;0.33;;;0.20;;
15982;SDS011;14442;50.196;8.096;2022-07-04T04:29:53;1.20;;;0.30;;
15982;SDS011;14442;50.196;8.096;2022-07-04T04:32:19;0.43;;;0.20;;
15982;SDS011;14442;50.196;8.096;2022-07-04T04:34:46;0.13;;;0.13;;
15982;SDS011;14442;50.196;8.096;2022-07-04T04:37:13;0.83;;;0.20;;
15982;SDS011;14442;50.196;8.096;2022-07-04T04:39:40;0.57;;;0.40;;
15982;SDS011;14442;50.196;8.096;2022-07-04T04:42:08;0.40;;;0.20;;
15982;SDS011;14442;50.196;8.096;2022-07-04T04:44:35;1.80;;;0.30;;
15982;SDS011;14442;50.196;8.096;2022-07-04T04:47:02;0.37;;;0.27;;
15982;SDS011;14442;50.196;8.096;2022-07-04T04:49:29;0.20;;;0.20;;
15982;SDS011;14442;50.196;8.096;2022-07-04T04:51:55;0.20;;;0.20;;
15982;SDS011;14442;50.196;8.096;2022-07-04T04:54:22;0.30;;;0.30;;
15982;SDS011;14442;50.196;8.096;2022-07-04T04:56:49;0.90;;;0.47;;
15982;SDS011;14442;50.196;8.096;2022-07-04T04:59:17;0.23;;;0.20;;
15982;SDS011;14442;50.196;8.096;2022-07-04T05:01:43;0.20;;;0.20;;
15982;SDS011;14442;50.196;8.096;2022-07-04T05:04:10;0.30;;;0.20;;
15982;SDS011;14442;50.196;8.096;2022-07-04T05:06:39;0.30;;;0.20;;
15982;SDS011;14442;50.196;8.096;2022-07-04T05:09:06;0.27;;;0.20;;
15982;SDS011;14442;50.196;8.096;2022-07-04T05:11:33;0.30;;;0.30;;
15982;SDS011;14442;50.196;8.096;2022-07-04T05:14:00;0.20;;;0.20;;
15982;SDS011;14442;50.196;8.096;2022-07-04T05:16:28;0.30;;;0.20;;
15982;SDS011;14442;50.196;8.096;2022-07-04T05:18:54;0.23;;;0.20;;
15982;SDS011;14442;50.196;8.096;2022-07-04T05:21:21;0.30;;;0.20;;
15982;SDS011;14442;50.196;8.096;2022-07-04T05:23:51;0.20;;;0.20;;
15982;SDS011;14442;50.196;8.096;2022-07-04T05:26:17;0.40;;;0.20;;
15982;SDS011;14442;50.196;8.096;2022-07-04T05:28:44;0.80;;;0.17;;
15982;SDS011;14442;50.196;8.096;2022-07-04T05:31:11;0.40;;;0.30;;
15982;SDS011;14442;50.196;8.096;2022-07-04T05:33:39;0.30;;;0.23;;
15982;SDS011;14442;50.196;8.096;2022-07-04T05:36:06;1.10;;;0.20;;
15982;SDS011;14442;50.196;8.096;2022-07-04T05:38:33;0.37;;;0.20;;
15982;SDS011;14442;50.196;8.096;2022-07-04T05:41:00;0.17;;;0.17;;
15982;SDS011;14442;50.196;8.096;2022-07-04T05:43:27;0.27;;;0.27;;
15982;SDS011;14442;50.196;8.096;2022-07-04T05:45:54;0.20;;;0.20;;
15982;SDS011;14442;50.196;8.096;2022-07-04T05:48:20;0.30;;;0.27;;
15982;SDS011;14442;50.196;8.096;2022-07-04T05:50:48;0.30;;;0.30;;
15982;SDS011;14442;50.196;8.096;2022-07-04T05:53:15;0.30;;;0.30;;
15982;SDS011;14442;50.196;8.096;2022-07-04T05:55:42;0.30;;;0.20;;
15982;SDS011;14442;50.196;8.096;2022-07-04T05:58:09;0.20;;;0.20;;
15982;SDS011;14442;50.196;8.096;2022-07-04T06:00:35;0.20;;;0.20;;
15982;SDS011;14442;50.196;8.096;2022-07-04T06:03:04;0.57;;;0.30;;
15982;SDS011;14442;50.196;8.096;2022-07-04T06:05:31;0.30;;;0.30;;
15982;SDS011;14442;50.196;8.096;2022-07-04T06:07:59;0.57;;;0.20;;
15982;SDS011;14442;50.196;8.096;2022-07-04T06:10:26;0.23;;;0.20;;
15982;SDS011;14442;50.196;8.096;2022-07-04T06:12:53;0.20;;;0.20;;
15982;SDS011;14442;50.196;8.096;2022-07-04T06:15:20;0.20;;;0.20;;
15982;SDS011;14442;50.196;8.096;2022-07-04T06:17:46;0.53;;;0.20;;
15982;SDS011;14442;50.196;8.096;2022-07-04T06:20:13;0.17;;;0.17;;
15982;SDS011;14442;50.196;8.096;2022-07-04T06:22:40;0.30;;;0.30;;
15982;SDS011;14442;50.196;8.096;2022-07-04T06:25:11;0.20;;;0.20;;
15982;SDS011;14442;50.196;8.096;2022-07-04T06:27:38;0.40;;;0.30;;
15982;SDS011;14442;50.196;8.096;2022-07-04T06:30:05;0.20;;;0.20;;
15982;SDS011;14442;50.196;8.096;2022-07-04T06:32:40;0.20;;;0.20;;
15982;SDS011;14442;50.196;8.096;2022-07-04T06:35:08;0.30;;;0.20;;
15982;SDS011;14442;50.196;8.096;2022-07-04T06:37:52;0.23;;;0.23;;
15982;SDS011;14442;50.196;8.096;2022-07-04T06:40:21;0.30;;;0.30;;
15982;SDS011;14442;50.196;8.096;2022-07-04T06:42:48;0.23;;;0.23;;
15982;SDS011;14442;50.196;8.096;2022-07-04T06:45:15;0.67;;;0.40;;
15982;SDS011;14442;50.196;8.096;2022-07-04T06:47:42;0.53;;;0.30;;
15982;SDS011;14442;50.196;8.096;2022-07-04T06:50:10;0.17;;;0.10;;
15982;SDS011;14442;50.196;8.096;2022-07-04T06:52:37;0.43;;;0.20;;
15982;SDS011;14442;50.196;8.096;2022-07-04T06:55:04;0.33;;;0.20;;
15982;SDS011;14442;50.196;8.096;2022-07-04T06:57:32;0.80;;;0.40;;
15982;SDS011;14442;50.196;8.096;2022-07-04T06:59:59;0.20;;;0.20;;
15982;SDS011;14442;50.196;8.096;2022-07-04T07:02:26;1.90;;;0.30;;
15982;SDS011;14442;50.196;8.096;2022-07-04T07:04:54;1.47;;;0.20;;
15982;SDS011;14442;50.196;8.096;2022-07-04T07:07:21;1.00;;;0.40;;
15982;SDS011;14442;50.196;8.096;2022-07-04T07:09:49;2.17;;;0.30;;
15982;SDS011;14442;50.196;8.096;2022-07-04T07:12:16;1.43;;;0.30;;
15982;SDS011;14442;50.196;8.096;2022-07-04T07:14:44;2.73;;;0.40;;
15982;SDS011;14442;50.196;8.096;2022-07-04T07:17:11;1.97;;;0.40;;
15982;SDS011;14442;50.196;8.096;2022-07-04T07:19:37;1.43;;;0.40;;
15982;SDS011;14442;50.196;8.096;2022-07-04T07:22:04;3.40;;;0.60;;
15982;SDS011;14442;50.196;8.096;2022-07-04T07:24:31;2.33;;;0.50;;
15982;SDS011;14442;50.196;8.096;2022-07-04T07:26:58;2.30;;;0.30;;
15982;SDS011;14442;50.196;8.096;2022-07-04T07:29:24;2.57;;;0.40;;
15982;SDS011;14442;50.196;8.096;2022-07-04T07:31:52;3.77;;;0.80;;
15982;SDS011;14442;50.196;8.096;2022-07-04T07:34:19;6.43;;;0.60;;
15982;SDS011;14442;50.196;8.096;2022-07-04T07:36:46;4.13;;;1.00;;
15982;SDS011;14442;50.196;8.096;2022-07-04T07:39:13;4.70;;;1.00;;
15982;SDS011;14442;50.196;8.096;2022-07-04T07:41:40;3.83;;;1.03;;
15982;SDS011;14442;50.196;8.096;2022-07-04T07:44:07;3.73;;;1.07;;
15982;SDS011;14442;50.196;8.096;2022-07-04T07:46:34;3.00;;;1.13;;
15982;SDS011;14442;50.196;8.096;2022-07-04T07:49:02;3.27;;;1.30;;
15982;SDS011;14442;50.196;8.096;2022-07-04T07:51:29;2.53;;;1.13;;
15982;SDS011;14442;50.196;8.096;2022-07-04T07:53:56;5.90;;;1.00;;
15982;SDS011;14442;50.196;8.096;2022-07-04T07:56:22;7.03;;;1.10;;
15982;SDS011;14442;50.196;8.096;2022-07-04T07:58:49;4.00;;;1.13;;
15982;SDS011;14442;50.196;8.096;2022-07-04T08:01:16;60.73;;;54.47;;
15982;SDS011;14442;50.196;8.096;2022-07-04T08:03:43;20.37;;;17.10;;
15982;SDS011;14442;50.196;8.096;2022-07-04T08:06:28;15.50;;;11.43;;
15982;SDS011;14442;50.196;8.096;2022-07-04T08:08:55;12.60;;;11.30;;
15982;SDS011;14442;50.196;8.096;2022-07-04T08:11:22;14.70;;;12.57;;
15982;SDS011;14442;50.196;8.096;2022-07-04T08:13:50;14.20;;;12.77;;
15982;SDS011;14442;50.196;8.096;2022-07-04T08:16:17;16.87;;;13.30;;
15982;SDS011;14442;50.196;8.096;2022-07-04T08:18:44;13.40;;;12.10;;
15982;SDS011;14442;50.196;8.096;2022-07-04T08:21:11;16.37;;;12.73;;
15982;SDS011;14442;50.196;8.096;2022-07-04T08:23:39;13.57;;;12.13;;
15982;SDS011;14442;50.196;8.096;2022-07-04T08:26:07;14.33;;;12.53;;
15982;SDS011;14442;50.196;8.096;2022-07-04T08:28:33;18.13;;;11.33;;
15982;SDS011;14442;50.196;8.096;2022-07-04T08:31:00;14.87;;;11.70;;
15982;SDS011;14442;50.196;8.096;2022-07-04T08:33:29;15.90;;;10.40;;
15982;SDS011;14442;50.196;8.096;2022-07-04T08:35:56;13.20;;;11.70;;
15982;SDS011;14442;50.196;8.096;2022-07-04T08:38:23;12.47;;;10.50;;
15982;SDS011;14442;50.196;8.096;2022-07-04T08:40:51;11.80;;;10.57;;
15982;SDS011;14442;50.196;8.096;2022-07-04T08:43:23;12.30;;;9.57;;
15982;SDS011;14442;50.196;8.096;2022-07-04T08:45:52;13.13;;;9.97;;
15982;SDS011;14442;50.196;8.096;2022-07-04T08:48:22;13.77;;;9.33;;
15982;SDS011;14442;50.196;8.096;2022-07-04T08:50:51;12.60;;;8.10;;
15982;SDS011;14442;50.196;8.096;2022-07-04T08:53:21;14.23;;;8.37;;
15982;SDS011;14442;50.196;8.096;2022-07-04T08:55:49;9.80;;;7.47;;
15982;SDS011;14442;50.196;8.096;2022-07-04T08:58:36;13.17;;;7.33;;
15982;SDS011;14442;50.196;8.096;2022-07-04T09:01:05;12.20;;;7.47;;
15982;SDS011;14442;50.196;8.096;2022-07-04T09:03:33;6.33;;;5.73;;
15982;SDS011;14442;50.196;8.096;2022-07-04T09:06:00;7.13;;;3.93;;
15982;SDS011;14442;50.196;8.096;2022-07-04T09:08:28;7.03;;;4.87;;
15982;SDS011;14442;50.196;8.096;2022-07-04T09:10:54;7.33;;;4.40;;
15982;SDS011;14442;50.196;8.096;2022-07-04T09:13:21;3.90;;;3.57;;
15982;SDS011;14442;50.196;8.096;2022-07-04T09:15:50;5.47;;;3.53;;
15982;SDS011;14442;50.196;8.096;2022-07-04T09:18:22;6.63;;;2.73;;
15982;SDS011;14442;50.196;8.096;2022-07-04T09:20:49;5.20;;;3.13;;
15982;SDS011;14442;50.196;8.096;2022-07-04T09:23:17;5.63;;;2.93;;
15982;SDS011;14442;50.196;8.096;2022-07-04T09:25:45;3.87;;;2.57;;
15982;SDS011;14442;50.196;8.096;2022-07-04T09:28:13;3.10;;;2.23;;
15982;SDS011;14442;50.196;8.096;2022-07-04T09:30:54;3.87;;;2.30;;
15982;SDS011;14442;50.196;8.096;2022-07-04T09:33:21;4.10;;;2.43;;
15982;SDS011;14442;50.196;8.096;2022-07-04T09:35:48;4.70;;;2.10;;
15982;SDS011;14442;50.196;8.096;2022-07-04T09:38:21;2.57;;;1.90;;
15982;SDS011;14442;50.196;8.096;2022-07-04T09:40:51;3.53;;;1.73;;
15982;SDS011;14442;50.196;8.096;2022-07-04T09:43:36;8.13;;;1.80;;
15982;SDS011;14442;50.196;8.096;2022-07-04T09:46:04;5.87;;;1.70;;
15982;SDS011;14442;50.196;8.096;2022-07-04T09:51:17;3.67;;;2.20;;
15982;SDS011;14442;50.196;8.096;2022-07-04T09:54:11;2.37;;;1.57;;
15982;SDS011;14442;50.196;8.096;2022-07-04T09:56:43;2.57;;;1.60;;
15982;SDS011;14442;50.196;8.096;2022-07-04T09:59:11;3.00;;;1.43;;
15982;SDS011;14442;50.196;8.096;2022-07-04T10:01:39;2.17;;;1.13;;
15982;SDS011;14442;50.196;8.096;2022-07-04T10:04:06;2.87;;;1.10;;
15982;SDS011;14442;50.196;8.096;2022-07-04T10:06:34;4.30;;;1.30;;
15982;SDS011;14442;50.196;8.096;2022-07-04T10:09:09;4.47;;;0.90;;
15982;SDS011;14442;50.196;8.096;2022-07-04T10:11:38;5.57;;;1.30;;
15982;SDS011;14442;50.196;8.096;2022-07-04T10:14:06;1.37;;;1.20;;
15982;SDS011;14442;50.196;8.096;2022-07-04T10:16:34;3.47;;;1.00;;
15982;SDS011;14442;50.196;8.096;2022-07-04T10:19:02;1.93;;;1.10;;
15982;SDS011;14442;50.196;8.096;2022-07-04T10:21:29;1.00;;;0.70;;
15982;SDS011;14442;50.196;8.096;2022-07-04T10:23:56;3.57;;;1.20;;
15982;SDS011;14442;50.196;8.096;2022-07-04T10:26:24;3.60;;;1.03;;
15982;SDS011;14442;50.196;8.096;2022-07-04T10:28:51;3.03;;;0.63;;
15982;SDS011;14442;50.196;8.096;2022-07-04T10:31:18;1.00;;;0.70;;
15982;SDS011;14442;50.196;8.096;2022-07-04T10:33:47;0.97;;;0.70;;
15982;SDS011;14442;50.196;8.096;2022-07-04T10:36:18;2.23;;;0.90;;
15982;SDS011;14442;50.196;8.096;2022-07-04T10:38:46;0.70;;;0.43;;
15982;SDS011;14442;50.196;8.096;2022-07-04T10:41:14;2.00;;;0.70;;
15982;SDS011;14442;50.196;8.096;2022-07-04T10:43:53;1.13;;;0.40;;
15982;SDS011;14442;50.196;8.096;2022-07-04T10:46:23;2.00;;;0.80;;
15982;SDS011;14442;50.196;8.096;2022-07-04T10:48:58;1.30;;;0.73;;
15982;SDS011;14442;50.196;8.096;2022-07-04T10:51:39;0.87;;;0.70;;
15982;SDS011;14442;50.196;8.096;2022-07-04T10:54:08;3.93;;;0.47;;
15982;SDS011;14442;50.196;8.096;2022-07-04T10:56:38;2.53;;;0.47;;
15982;SDS011;14442;50.196;8.096;2022-07-04T10:59:10;2.53;;;0.60;;
15982;SDS011;14442;50.196;8.096;2022-07-04T11:01:39;3.30;;;0.60;;
15982;SDS011;14442;50.196;8.096;2022-07-04T11:04:11;1.47;;;0.60;;
15982;SDS011;14442;50.196;8.096;2022-07-04T11:06:52;1.67;;;0.60;;
15982;SDS011;14442;50.196;8.096;2022-07-04T11:09:20;0.40;;;0.40;;
15982;SDS011;14442;50.196;8.096;2022-07-04T11:11:48;2.27;;;0.33;;
15982;SDS011;14442;50.196;8.096;2022-07-04T11:14:37;1.73;;;0.60;;
15982;SDS011;14442;50.196;8.096;2022-07-04T11:17:05;1.70;;;0.40;;
15982;SDS011;14442;50.196;8.096;2022-07-04T11:19:34;1.50;;;0.30;;
15982;SDS011;14442;50.196;8.096;2022-07-04T11:22:03;1.40;;;0.47;;
15982;SDS011;14442;50.196;8.096;2022-07-04T11:24:31;1.90;;;0.37;;
15982;SDS011;14442;50.196;8.096;2022-07-04T11:26:58;1.43;;;0.40;;
15982;SDS011;14442;50.196;8.096;2022-07-04T11:29:26;0.43;;;0.30;;
15982;SDS011;14442;50.196;8.096;2022-07-04T11:31:54;0.20;;;0.20;;
15982;SDS011;14442;50.196;8.096;2022-07-04T11:34:21;0.50;;;0.20;;
15982;SDS011;14442;50.196;8.096;2022-07-04T11:36:50;1.50;;;0.20;;
15982;SDS011;14442;50.196;8.096;2022-07-04T11:39:18;0.47;;;0.37;;
15982;SDS011;14442;50.196;8.096;2022-07-04T11:41:47;1.43;;;0.37;;
15982;SDS011;14442;50.196;8.096;2022-07-04T11:44:33;0.40;;;0.20;;
15982;SDS011;14442;50.196;8.096;2022-07-04T11:47:19;0.20;;;0.20;;
15982;SDS011;14442;50.196;8.096;2022-07-04T11:49:48;1.70;;;0.20;;
15982;SDS011;14442;50.196;8.096;2022-07-04T11:52:17;1.57;;;0.30;;
15982;SDS011;14442;50.196;8.096;2022-07-04T11:54:47;0.63;;;0.30;;
15982;SDS011;14442;50.196;8.096;2022-07-04T11:57:16;0.73;;;0.30;;
15982;SDS011;14442;50.196;8.096;2022-07-04T11:59:51;1.30;;;0.30;;
15982;SDS011;14442;50.196;8.096;2022-07-04T12:02:22;0.57;;;0.20;;
15982;SDS011;14442;50.196;8.096;2022-07-04T12:04:49;1.30;;;0.27;;
15982;SDS011;14442;50.196;8.096;2022-07-04T12:07:17;1.70;;;0.30;;
15982;SDS011;14442;50.196;8.096;2022-07-04T12:09:45;1.50;;;0.23;;
15982;SDS011;14442;50.196;8.096;2022-07-04T12:12:14;3.30;;;0.40;;
15982;SDS011;14442;50.196;8.096;2022-07-04T12:14:56;3.07;;;0.30;;
15982;SDS011;14442;50.196;8.096;2022-07-04T12:17:31;2.10;;;0.33;;
15982;SDS011;14442;50.196;8.096;2022-07-04T12:20:00;0.73;;;0.47;;
15982;SDS011;14442;50.196;8.096;2022-07-04T12:22:32;1.90;;;0.53;;
15982;SDS011;14442;50.196;8.096;2022-07-04T12:25:03;4.37;;;0.67;;
15982;SDS011;14442;50.196;8.096;2022-07-04T12:27:31;5.87;;;0.60;;
15982;SDS011;14442;50.196;8.096;2022-07-04T12:29:58;5.03;;;1.00;;
15982;SDS011;14442;50.196;8.096;2022-07-04T12:32:47;7.53;;;0.90;;
15982;SDS011;14442;50.196;8.096;2022-07-04T12:35:31;6.30;;;1.23;;
15982;SDS011;14442;50.196;8.096;2022-07-04T12:38:02;6.27;;;0.70;;
15982;SDS011;14442;50.196;8.096;2022-07-04T12:40:32;8.83;;;0.73;;
15982;SDS011;14442;50.196;8.096;2022-07-04T12:42:59;1.87;;;0.57;;
15982;SDS011;14442;50.196;8.096;2022-07-04T12:45:28;4.53;;;0.80;;
15982;SDS011;14442;50.196;8.096;2022-07-04T12:48:13;5.33;;;0.40;;
15982;SDS011;14442;50.196;8.096;2022-07-04T12:50:51;1.67;;;0.50;;
15982;SDS011;14442;50.196;8.096;2022-07-04T12:53:19;5.57;;;0.50;;
15982;SDS011;14442;50.196;8.096;2022-07-04T12:55:48;5.33;;;0.50;;
15982;SDS011;14442;50.196;8.096;2022-07-04T12:58:16;7.00;;;0.77;;
15982;SDS011;14442;50.196;8.096;2022-07-04T13:00:43;2.83;;;0.40;;
15982;SDS011;14442;50.196;8.096;2022-07-04T13:03:09;3.70;;;0.50;;
15982;SDS011;14442;50.196;8.096;2022-07-04T13:05:37;3.67;;;0.50;;
15982;SDS011;14442;50.196;8.096;2022-07-04T13:08:04;2.53;;;0.53;;
15982;SDS011;14442;50.196;8.096;2022-07-04T13:10:32;4.33;;;0.87;;
15982;SDS011;14442;50.196;8.096;2022-07-04T13:13:01;5.40;;;0.57;;
15982;SDS011;14442;50.196;8.096;2022-07-04T13:15:28;3.80;;;0.90;;
15982;SDS011;14442;50.196;8.096;2022-07-04T13:17:55;4.13;;;0.50;;
15982;SDS011;14442;50.196;8.096;2022-07-04T13:20:21;1.23;;;0.50;;
15982;SDS011;14442;50.196;8.096;2022-07-04T13:22:48;2.73;;;0.40;;
15982;SDS011;14442;50.196;8.096;2022-07-04T13:25:15;2.13;;;0.50;;
15982;SDS011;14442;50.196;8.096;2022-07-04T13:27:42;1.73;;;0.20;;
15982;SDS011;14442;50.196;8.096;2022-07-04T13:30:10;6.40;;;0.80;;
15982;SDS011;14442;50.196;8.096;2022-07-04T13:32:38;3.73;;;0.40;;
15982;SDS011;14442;50.196;8.096;2022-07-04T13:35:05;2.10;;;0.20;;
15982;SDS011;14442;50.196;8.096;2022-07-04T13:37:32;0.60;;;0.20;;
15982;SDS011;14442;50.196;8.096;2022-07-04T13:39:58;1.43;;;0.20;;
15982;SDS011;14442;50.196;8.096;2022-07-04T13:42:25;4.60;;;0.30;;
15982;SDS011;14442;50.196;8.096;2022-07-04T13:45:10;1.80;;;0.27;;
15982;SDS011;14442;50.196;8.096;2022-07-04T13:47:39;2.40;;;0.40;;
15982;SDS011;14442;50.196;8.096;2022-07-04T13:50:06;2.37;;;0.40;;
15982;SDS011;14442;50.196;8.096;2022-07-04T13:52:33;3.40;;;0.67;;
15982;SDS011;14442;50.196;8.096;2022-07-04T13:55:00;0.93;;;0.30;;
15982;SDS011;14442;50.196;8.096;2022-07-04T13:57:27;2.83;;;0.37;;
15982;SDS011;14442;50.196;8.096;2022-07-04T13:59:53;3.20;;;0.40;;
15982;SDS011;14442;50.196;8.096;2022-07-04T14:02:21;0.87;;;0.20;;
15982;SDS011;14442;50.196;8.096;2022-07-04T14:04:48;1.53;;;0.20;;
15982;SDS011;14442;50.196;8.096;2022-07-04T14:07:15;1.10;;;0.23;;
15982;SDS011;14442;50.196;8.096;2022-07-04T14:09:41;1.80;;;0.20;;
15982;SDS011;14442;50.196;8.096;2022-07-04T14:12:08;2.43;;;0.37;;
15982;SDS011;14442;50.196;8.096;2022-07-04T14:14:35;0.83;;;0.40;;
15982;SDS011;14442;50.196;8.096;2022-07-04T14:17:02;1.23;;;0.30;;
15982;SDS011;14442;50.196;8.096;2022-07-04T14:19:30;3.80;;;0.30;;
15982;SDS011;14442;50.196;8.096;2022-07-04T14:21:57;1.77;;;0.20;;
15982;SDS011;14442;50.196;8.096;2022-07-04T14:24:24;0.70;;;0.20;;
15982;SDS011;14442;50.196;8.096;2022-07-04T14:26:50;3.23;;;0.30;;
15982;SDS011;14442;50.196;8.096;2022-07-04T14:29:17;1.07;;;0.10;;
15982;SDS011;14442;50.196;8.096;2022-07-04T14:31:44;1.33;;;0.20;;
15982;SDS011;14442;50.196;8.096;2022-07-04T14:34:11;1.37;;;0.40;;
15982;SDS011;14442;50.196;8.096;2022-07-04T14:36:39;0.93;;;0.20;;
15982;SDS011;14442;50.196;8.096;2022-07-04T14:39:07;1.17;;;0.30;;
15982;SDS011;14442;50.196;8.096;2022-07-04T14:41:34;0.80;;;0.30;;
15982;SDS011;14442;50.196;8.096;2022-07-04T14:44:01;2.13;;;0.20;;
15982;SDS011;14442;50.196;8.096;2022-07-04T14:46:28;1.80;;;0.23;;
15982;SDS011;14442;50.196;8.096;2022-07-04T14:48:55;0.83;;;0.20;;
15982;SDS011;14442;50.196;8.096;2022-07-04T14:51:22;2.17;;;0.40;;
15982;SDS011;14442;50.196;8.096;2022-07-04T14:53:51;4.43;;;0.30;;
15982;SDS011;14442;50.196;8.096;2022-07-04T14:56:17;2.60;;;0.40;;